Foxpark, Wyoming
Current Conditions -  °F | °C
As of 4:53 PM on Sunday 21 Dec 2014 (Local Time) from KLAR Reporting Station
Overcast Overcast  
Wind Chill: 24°   Ceiling: 3500
Heat Index: 36°   Visibility: 10mi
Dew Point: 28°   Wind: 23mph
Humidity: 73%   Direction: 290°WNW
Pressure: 29.56"   Gusts: 30mph
Location:  41.2601°N, 105.565°W
Report Text: KLAR 212353Z AUTO 29020G26KT 10SM OVC035 02/M02 A2956 RMK AO2 PK WND 29026/2353 SNB12E25 SLP995 P0000 60000 T00221022 10033 21006 51007
Loading
Personal Weather Stations






























Interactive Weather Map New forecast layout! Learn more

10-Day Weather Forecast

Advertisements
Track Severe Weather on mobile